createdAt,value
2018-05-24T00:00:13.236Z,18.72
2018-05-24T00:01:13.285Z,18.70
2018-05-24T00:02:13.150Z,18.69
2018-05-24T00:03:13.135Z,18.68
2018-05-24T00:04:13.165Z,18.68
2018-05-24T00:05:13.205Z,18.68
2018-05-24T00:06:13.134Z,18.65
2018-05-24T00:07:13.213Z,18.61
2018-05-24T00:08:13.208Z,18.58
2018-05-24T00:09:13.181Z,18.57
2018-05-24T00:10:13.212Z,18.54
2018-05-24T00:11:13.214Z,18.50
2018-05-24T00:12:13.273Z,18.46
2018-05-24T00:13:13.252Z,18.43
2018-05-24T00:14:13.215Z,18.38
2018-05-24T00:15:13.216Z,18.36
2018-05-24T00:16:13.196Z,18.35
2018-05-24T00:17:13.191Z,18.34
2018-05-24T00:18:13.180Z,18.34
2018-05-24T00:19:13.235Z,18.32
2018-05-24T00:20:13.254Z,18.31
2018-05-24T00:21:13.351Z,18.28
2018-05-24T00:22:13.240Z,18.25
2018-05-24T00:23:13.253Z,18.20
2018-05-24T00:24:13.241Z,18.13
2018-05-24T00:25:13.129Z,18.09
2018-05-24T00:26:13.146Z,18.07
2018-05-24T00:27:13.181Z,18.06
2018-05-24T00:28:13.207Z,18.05
2018-05-24T00:29:13.246Z,18.02
2018-05-24T00:30:13.190Z,17.98
2018-05-24T00:31:13.225Z,17.96
2018-05-24T00:32:13.182Z,17.98
2018-05-24T00:33:13.209Z,17.99
2018-05-24T00:34:13.163Z,17.99
2018-05-24T00:35:13.262Z,17.99
2018-05-24T00:36:13.247Z,17.98
2018-05-24T00:37:13.193Z,17.95
2018-05-24T00:38:13.150Z,17.92
2018-05-24T00:39:13.226Z,17.89
2018-05-24T00:40:13.260Z,17.87
2018-05-24T00:41:13.274Z,17.84
2018-05-24T00:42:13.255Z,17.76
2018-05-24T00:43:13.271Z,17.73
2018-05-24T00:44:13.234Z,17.69
2018-05-24T00:45:13.259Z,17.68
2018-05-24T00:46:13.274Z,17.65
2018-05-24T00:47:13.172Z,17.61
2018-05-24T00:48:13.216Z,17.58
2018-05-24T00:49:13.295Z,17.55
2018-05-24T00:50:13.218Z,17.53
2018-05-24T00:51:13.444Z,17.50
2018-05-24T00:52:13.274Z,17.49
2018-05-24T00:53:13.242Z,17.46
2018-05-24T00:54:13.266Z,17.43
2018-05-24T00:55:13.181Z,17.40
2018-05-24T00:56:13.146Z,17.36
2018-05-24T00:57:13.240Z,17.32
2018-05-24T00:58:13.281Z,17.29
2018-05-24T00:59:13.167Z,17.24
2018-05-24T01:00:13.241Z,17.22
2018-05-24T01:01:13.209Z,17.21
2018-05-24T01:02:13.165Z,17.18
2018-05-24T01:03:13.208Z,17.18
2018-05-24T01:04:13.171Z,17.16
2018-05-24T01:05:13.249Z,17.16
2018-05-24T01:06:13.154Z,17.18
2018-05-24T01:07:13.219Z,17.18
2018-05-24T01:08:13.253Z,17.21
2018-05-24T01:09:13.209Z,17.22
2018-05-24T01:10:13.288Z,17.25
2018-05-24T01:11:13.216Z,17.26
2018-05-24T01:12:13.174Z,17.26
2018-05-24T01:13:13.282Z,17.26
2018-05-24T01:14:13.175Z,17.28
2018-05-24T01:15:13.213Z,17.28
2018-05-24T01:16:13.289Z,17.31
2018-05-24T01:17:13.290Z,17.31
2018-05-24T01:18:13.293Z,17.31
2018-05-24T01:19:13.215Z,17.32
2018-05-24T01:20:13.176Z,17.36
2018-05-24T01:21:13.256Z,17.36
2018-05-24T01:22:13.300Z,17.36
2018-05-24T01:23:13.256Z,17.39
2018-05-24T01:24:13.177Z,17.40
2018-05-24T01:25:13.256Z,17.43
2018-05-24T01:26:13.203Z,17.46
2018-05-24T01:27:13.275Z,17.49
2018-05-24T01:28:13.258Z,17.49
2018-05-24T01:29:13.287Z,17.50
2018-05-24T01:30:13.183Z,17.53
2018-05-24T01:31:13.261Z,17.55
2018-05-24T01:32:13.255Z,17.62
2018-05-24T01:33:13.216Z,17.68
2018-05-24T01:34:13.170Z,17.69
2018-05-24T01:35:13.261Z,17.72
2018-05-24T01:36:13.216Z,17.73
2018-05-24T01:37:13.219Z,17.77
2018-05-24T01:38:13.191Z,17.84
2018-05-24T01:39:13.226Z,17.85
2018-05-24T01:40:13.172Z,17.85
2018-05-24T01:41:13.180Z,17.85
2018-05-24T01:42:13.215Z,17.83
2018-05-24T01:43:13.271Z,17.76
2018-05-24T01:44:13.273Z,17.69
2018-05-24T01:45:13.243Z,17.65
2018-05-24T01:46:13.246Z,17.61
2018-05-24T01:47:13.244Z,17.55
2018-05-24T01:48:13.276Z,17.50
2018-05-24T01:49:13.301Z,17.44
2018-05-24T01:50:13.281Z,17.37
2018-05-24T01:51:13.197Z,17.33
2018-05-24T01:52:13.201Z,17.29
2018-05-24T01:53:13.198Z,17.28
2018-05-24T01:54:13.320Z,17.26
2018-05-24T01:55:13.184Z,17.25
2018-05-24T01:56:13.264Z,17.22
2018-05-24T01:57:13.280Z,17.20
2018-05-24T01:58:13.289Z,17.16
2018-05-24T01:59:13.268Z,17.09
2018-05-24T02:00:13.284Z,17.06
2018-05-24T02:01:13.310Z,17.02
2018-05-24T02:02:13.320Z,16.99
2018-05-24T02:03:13.185Z,16.94
2018-05-24T02:04:13.310Z,16.91
2018-05-24T02:05:13.307Z,16.88
2018-05-24T02:06:13.191Z,16.84
2018-05-24T02:07:13.191Z,16.81
2018-05-24T02:08:13.267Z,16.76
2018-05-24T02:09:13.290Z,16.70
2018-05-24T02:10:17.766Z,16.69
2018-05-24T02:11:13.253Z,16.68
2018-05-24T02:12:13.291Z,16.66
2018-05-24T02:13:13.291Z,16.65
2018-05-24T02:14:13.324Z,16.62
2018-05-24T02:15:13.252Z,16.61
2018-05-24T02:16:13.292Z,16.63
2018-05-24T02:17:13.296Z,16.63
2018-05-24T02:18:13.333Z,16.65
2018-05-24T02:19:13.294Z,16.66
2018-05-24T02:20:13.297Z,16.65
2018-05-24T02:21:13.256Z,16.63
2018-05-24T02:22:13.219Z,16.62
2018-05-24T02:23:13.330Z,16.62
2018-05-24T02:24:13.237Z,16.63
2018-05-24T02:25:13.231Z,16.63
2018-05-24T02:26:13.301Z,16.62
2018-05-24T02:27:13.231Z,16.61
2018-05-24T02:28:13.303Z,16.58
2018-05-24T02:29:13.319Z,16.57
2018-05-24T02:30:13.239Z,16.54
2018-05-24T02:31:13.346Z,16.51
2018-05-24T02:32:13.270Z,16.48
2018-05-24T02:33:13.236Z,16.47
2018-05-24T02:34:13.298Z,16.47
2018-05-24T02:35:13.222Z,16.48
2018-05-24T02:36:13.211Z,16.55
2018-05-24T02:37:13.232Z,16.69
2018-05-24T02:38:13.306Z,16.81
2018-05-24T02:39:13.180Z,16.85
2018-05-24T02:40:13.304Z,16.90
2018-05-24T02:41:13.248Z,16.88
2018-05-24T02:42:13.206Z,16.90
2018-05-24T02:43:13.313Z,16.90
2018-05-24T02:44:13.342Z,16.88
2018-05-24T02:45:13.279Z,16.90
2018-05-24T02:46:13.211Z,16.88
2018-05-24T02:47:13.313Z,16.85
2018-05-24T02:48:13.314Z,16.85
2018-05-24T02:49:13.318Z,16.79
2018-05-24T02:50:13.216Z,16.76
2018-05-24T02:51:13.222Z,16.72
2018-05-24T02:52:13.315Z,16.70
2018-05-24T02:53:13.339Z,16.69
2018-05-24T02:54:13.224Z,16.68
2018-05-24T02:55:13.316Z,16.65
2018-05-24T02:56:13.289Z,16.61
2018-05-24T02:57:13.349Z,16.57
2018-05-24T02:58:13.278Z,16.54
2018-05-24T02:59:13.350Z,16.51
2018-05-24T03:00:13.232Z,16.47
2018-05-24T03:01:13.359Z,16.44
2018-05-24T03:02:13.342Z,16.41
2018-05-24T03:03:13.357Z,16.38
2018-05-24T03:04:13.221Z,16.36
2018-05-24T03:05:13.213Z,16.32
2018-05-24T03:06:13.283Z,16.31
2018-05-24T03:07:13.319Z,16.28
2018-05-24T03:08:13.213Z,16.25
2018-05-24T03:09:13.284Z,16.21
2018-05-24T03:10:13.195Z,16.20
2018-05-24T03:11:13.276Z,16.18
2018-05-24T03:12:13.255Z,16.17
2018-05-24T03:13:13.235Z,16.18
2018-05-24T03:14:13.283Z,16.18
2018-05-24T03:15:13.273Z,16.18
2018-05-24T03:16:13.362Z,16.18
2018-05-24T03:17:13.240Z,16.17
2018-05-24T03:18:13.241Z,16.16
2018-05-24T03:19:13.254Z,16.14
2018-05-24T03:20:13.336Z,16.14
2018-05-24T03:21:13.343Z,16.13
2018-05-24T03:22:13.379Z,16.11
2018-05-24T03:23:13.257Z,16.10
2018-05-24T03:24:13.258Z,16.06
2018-05-24T03:25:13.332Z,16.05
2018-05-24T03:26:13.328Z,16.05
2018-05-24T03:27:13.305Z,16.02
2018-05-24T03:28:13.274Z,16.00
2018-05-24T03:29:13.335Z,15.99
2018-05-24T03:30:13.333Z,15.97
2018-05-24T03:31:13.373Z,15.95
2018-05-24T03:32:13.327Z,15.94
2018-05-24T03:33:13.246Z,15.93
2018-05-24T03:34:13.279Z,15.90
2018-05-24T03:35:13.476Z,15.87
2018-05-24T03:36:13.369Z,15.86
2018-05-24T03:37:13.310Z,15.88
2018-05-24T03:38:13.285Z,15.91
2018-05-24T03:39:13.249Z,15.90
2018-05-24T03:40:13.304Z,15.90
2018-05-24T03:41:13.382Z,15.91
2018-05-24T03:42:13.323Z,15.93
2018-05-24T03:43:13.369Z,15.93
2018-05-24T03:44:13.304Z,15.93
2018-05-24T03:45:13.320Z,15.90
2018-05-24T03:46:13.316Z,15.90
2018-05-24T03:47:13.335Z,15.91
2018-05-24T03:48:13.289Z,15.91
2018-05-24T03:49:13.360Z,15.90
2018-05-24T03:50:13.383Z,15.90
2018-05-24T03:51:13.354Z,15.90
2018-05-24T03:52:13.269Z,15.91
2018-05-24T03:53:13.330Z,15.91
2018-05-24T03:54:13.292Z,15.93
2018-05-24T03:55:13.289Z,15.93
2018-05-24T03:56:13.357Z,15.94
2018-05-24T03:57:13.359Z,15.95
2018-05-24T03:58:13.313Z,15.97
2018-05-24T03:59:13.291Z,16.00
2018-05-24T04:00:13.357Z,16.03
2018-05-24T04:01:13.299Z,16.03
2018-05-24T04:02:13.359Z,16.05
2018-05-24T04:03:13.310Z,16.06
2018-05-24T04:04:13.341Z,16.07
2018-05-24T04:05:13.387Z,16.07
2018-05-24T04:06:13.416Z,16.10
2018-05-24T04:07:13.347Z,16.13
2018-05-24T04:08:13.381Z,16.18
2018-05-24T04:09:13.341Z,16.20
2018-05-24T04:10:13.369Z,16.24
2018-05-24T04:11:13.427Z,16.25
2018-05-24T04:12:13.404Z,16.29
2018-05-24T04:13:13.336Z,16.31
2018-05-24T04:14:13.330Z,16.35
2018-05-24T04:15:13.339Z,16.35
2018-05-24T04:16:13.336Z,16.38
2018-05-24T04:17:13.477Z,16.38
2018-05-24T04:18:13.374Z,16.36
2018-05-24T04:19:13.411Z,16.39
2018-05-24T04:20:13.309Z,16.46
2018-05-24T04:21:13.280Z,16.47
2018-05-24T04:22:13.269Z,16.50
2018-05-24T04:23:13.349Z,16.51
2018-05-24T04:24:13.409Z,16.54
2018-05-24T04:25:13.393Z,16.55
2018-05-24T04:26:13.336Z,16.57
2018-05-24T04:27:13.404Z,16.55
2018-05-24T04:28:13.349Z,16.54
2018-05-24T04:29:13.401Z,16.55
2018-05-24T04:30:13.341Z,16.55
2018-05-24T04:31:13.345Z,16.54
2018-05-24T04:32:13.382Z,16.55
2018-05-24T04:33:13.409Z,16.57
2018-05-24T04:34:13.313Z,16.59
2018-05-24T04:35:13.382Z,16.63
2018-05-24T04:36:13.414Z,16.66
2018-05-24T04:37:13.314Z,16.69
2018-05-24T04:38:13.315Z,16.70
2018-05-24T04:39:13.382Z,16.76
2018-05-24T04:40:13.385Z,16.79
2018-05-24T04:41:13.324Z,16.81
2018-05-24T04:42:13.385Z,16.85
2018-05-24T04:43:13.399Z,16.88
2018-05-24T04:44:13.418Z,16.91
2018-05-24T04:45:13.372Z,16.90
2018-05-24T04:46:13.520Z,16.92
2018-05-24T04:47:13.365Z,16.97
2018-05-24T04:48:13.390Z,16.99
2018-05-24T04:49:13.365Z,17.01
2018-05-24T04:50:13.427Z,17.03
2018-05-24T04:51:13.291Z,17.03
2018-05-24T04:52:13.343Z,17.08
2018-05-24T04:53:13.363Z,17.13
2018-05-24T04:54:13.332Z,17.18
2018-05-24T04:55:13.398Z,17.21
2018-05-24T04:56:13.332Z,17.14
2018-05-24T04:57:13.359Z,17.14
2018-05-24T04:58:13.331Z,17.16
2018-05-24T04:59:13.398Z,17.14
2018-05-24T05:00:13.398Z,17.16
2018-05-24T05:01:13.327Z,17.21
2018-05-24T05:02:13.361Z,17.22
2018-05-24T05:03:13.399Z,17.25
2018-05-24T05:04:13.305Z,17.22
2018-05-24T05:05:13.299Z,17.22
2018-05-24T05:07:13.399Z,17.20
2018-05-24T05:08:13.358Z,17.18
2018-05-24T05:09:13.362Z,17.14
2018-05-24T05:10:13.321Z,17.16
2018-05-24T05:11:13.428Z,17.14
2018-05-24T05:12:13.386Z,17.21
2018-05-24T05:13:13.444Z,17.26
2018-05-24T05:14:13.428Z,17.28
2018-05-24T05:15:13.444Z,17.33
2018-05-24T05:16:13.332Z,17.37
2018-05-24T05:17:13.373Z,17.44
2018-05-24T05:18:13.405Z,17.53
2018-05-24T05:19:13.307Z,17.58
2018-05-24T05:20:13.430Z,17.66
2018-05-24T05:21:13.374Z,17.76
2018-05-24T05:22:13.410Z,17.88
2018-05-24T05:23:13.593Z,17.95
2018-05-24T05:24:13.416Z,18.03
2018-05-24T05:25:13.466Z,18.05
2018-05-24T05:26:13.347Z,18.09
2018-05-24T05:27:13.413Z,18.17
2018-05-24T05:28:13.413Z,18.24
2018-05-24T05:29:13.352Z,18.24
2018-05-24T05:30:13.422Z,18.24
2018-05-24T05:31:13.420Z,18.21
2018-05-24T05:32:13.418Z,18.18
2018-05-24T05:33:13.351Z,18.24
2018-05-24T05:34:13.368Z,18.28
2018-05-24T05:35:13.297Z,18.25
2018-05-24T05:36:13.305Z,18.31
2018-05-24T05:37:13.354Z,18.35
2018-05-24T05:38:13.477Z,18.38
2018-05-24T05:39:13.378Z,18.46
2018-05-24T05:40:13.407Z,18.41
2018-05-24T05:41:13.345Z,18.40
2018-05-24T05:42:13.357Z,18.28
2018-05-24T05:43:13.412Z,18.21
2018-05-24T05:44:13.382Z,18.24
2018-05-24T05:45:13.441Z,18.27
2018-05-24T05:46:13.399Z,18.23
2018-05-24T05:47:13.431Z,18.23
2018-05-24T05:48:13.406Z,18.23
2018-05-24T05:49:13.406Z,18.20
2018-05-24T05:50:13.403Z,18.24
2018-05-24T05:51:13.458Z,18.28
2018-05-24T05:52:13.403Z,18.29
2018-05-24T05:53:13.468Z,18.31
2018-05-24T05:54:13.362Z,18.32
2018-05-24T05:55:13.434Z,18.35
2018-05-24T05:56:13.365Z,18.32
2018-05-24T05:57:13.364Z,18.31
2018-05-24T05:58:13.433Z,18.36
2018-05-24T05:59:13.437Z,18.36
2018-05-24T06:00:13.398Z,18.34
2018-05-24T06:01:13.373Z,18.36
2018-05-24T06:02:13.372Z,18.40
2018-05-24T06:03:13.440Z,18.44
2018-05-24T06:04:13.398Z,18.47
2018-05-24T06:05:13.346Z,18.48
2018-05-24T06:06:13.465Z,18.51
2018-05-24T06:07:13.367Z,18.48
2018-05-24T06:08:13.442Z,18.47
2018-05-24T06:09:13.476Z,18.50
2018-05-24T06:10:13.487Z,18.57
2018-05-24T06:11:13.405Z,18.58
2018-05-24T06:12:13.427Z,18.66
2018-05-24T06:13:13.406Z,18.73
2018-05-24T06:14:13.470Z,18.79
2018-05-24T06:15:13.484Z,18.88
2018-05-24T06:16:13.462Z,18.94
2018-05-24T06:17:13.421Z,18.95
2018-05-24T06:18:13.407Z,18.91
2018-05-24T06:19:13.369Z,18.94
2018-05-24T06:20:13.348Z,18.95
2018-05-24T06:21:13.469Z,18.91
2018-05-24T06:22:13.351Z,18.92
2018-05-24T06:23:13.481Z,18.94
2018-05-24T06:24:13.310Z,18.99
2018-05-24T06:25:13.350Z,19.08
2018-05-24T06:26:13.324Z,19.10
2018-05-24T06:27:13.401Z,19.15
2018-05-24T06:28:13.358Z,19.17
2018-05-24T06:29:13.350Z,19.17
2018-05-24T06:30:13.348Z,19.20
2018-05-24T06:31:13.381Z,19.15
2018-05-24T06:32:13.442Z,19.20
2018-05-24T06:33:13.418Z,19.25
2018-05-24T06:34:13.465Z,19.20
2018-05-24T06:35:13.493Z,19.15
2018-05-24T06:36:13.479Z,19.19
2018-05-24T06:37:13.456Z,19.19
2018-05-24T06:38:13.464Z,19.21
2018-05-24T06:39:13.430Z,19.32
2018-05-24T06:40:13.498Z,19.44
2018-05-24T06:41:13.494Z,19.51
2018-05-24T06:42:13.499Z,19.40
2018-05-24T06:43:13.367Z,19.43
2018-05-24T06:44:13.398Z,19.50
2018-05-24T06:45:13.465Z,19.58
2018-05-24T06:46:13.406Z,19.66
2018-05-24T06:47:13.466Z,19.74
2018-05-24T06:48:13.485Z,19.74
2018-05-24T06:49:13.428Z,19.83
2018-05-24T06:50:13.467Z,19.84
2018-05-24T06:51:13.401Z,19.84
2018-05-24T06:52:13.363Z,19.81
2018-05-24T06:53:13.403Z,19.85
2018-05-24T06:54:13.473Z,19.88
2018-05-24T06:55:13.406Z,19.95
2018-05-24T06:56:13.420Z,19.92
2018-05-24T06:57:13.405Z,19.94
2018-05-24T06:58:13.402Z,19.96
2018-05-24T06:59:13.473Z,19.92
2018-05-24T07:00:13.475Z,19.81
2018-05-24T07:01:13.406Z,19.83
2018-05-24T07:02:13.480Z,19.92
2018-05-24T07:03:13.478Z,20.01
2018-05-24T07:04:13.493Z,20.07
2018-05-24T07:05:13.475Z,20.16
2018-05-24T07:06:13.449Z,20.18
2018-05-24T07:07:13.459Z,20.21
2018-05-24T07:08:13.421Z,20.09
2018-05-24T07:09:13.500Z,19.96
2018-05-24T07:10:13.418Z,19.91
2018-05-24T07:11:13.504Z,19.73
2018-05-24T07:12:13.380Z,19.77
2018-05-24T07:13:13.486Z,19.73
2018-05-24T07:14:13.530Z,19.80
2018-05-24T07:15:13.497Z,19.79
2018-05-24T07:16:13.426Z,19.81
2018-05-24T07:17:13.443Z,19.92
2018-05-24T07:18:13.502Z,19.94
2018-05-24T07:19:13.459Z,19.98
2018-05-24T07:20:13.390Z,20.10
2018-05-24T07:21:13.487Z,20.20
2018-05-24T07:22:13.410Z,20.24
2018-05-24T07:23:13.492Z,20.31
2018-05-24T07:24:13.492Z,20.42
2018-05-24T07:25:13.445Z,20.45
2018-05-24T07:26:13.471Z,20.54
2018-05-24T07:27:13.447Z,20.68
2018-05-24T07:28:13.444Z,20.69
2018-05-24T07:29:13.489Z,20.70
2018-05-24T07:30:13.447Z,20.70
2018-05-24T07:31:13.463Z,20.53
2018-05-24T07:32:13.515Z,20.41
2018-05-24T07:33:13.450Z,20.36
2018-05-24T07:35:13.398Z,20.43
2018-05-24T07:36:13.433Z,20.49
2018-05-24T07:37:13.425Z,20.49
2018-05-24T07:38:13.421Z,20.42
2018-05-24T07:39:13.365Z,20.45
2018-05-24T07:40:13.365Z,20.49
2018-05-24T07:41:13.423Z,20.49
2018-05-24T07:42:13.451Z,20.47
2018-05-24T07:43:13.464Z,20.47
2018-05-24T07:44:13.380Z,20.46
2018-05-24T07:45:13.414Z,20.50
2018-05-24T07:46:13.477Z,20.49
2018-05-24T07:47:13.474Z,20.42
2018-05-24T07:48:13.546Z,20.32
2018-05-24T07:49:13.482Z,20.23
2018-05-24T07:50:13.546Z,20.24
2018-05-24T07:51:13.528Z,20.27
2018-05-24T07:52:13.494Z,20.32
2018-05-24T07:53:13.486Z,20.32
2018-05-24T07:54:13.488Z,20.13
2018-05-24T07:55:13.406Z,20.21
2018-05-24T07:56:13.374Z,20.18
2018-05-24T07:57:13.356Z,20.23
2018-05-24T07:58:13.319Z,20.25
2018-05-24T07:59:13.323Z,20.27
2018-05-24T08:00:13.307Z,20.38
2018-05-24T08:01:13.374Z,20.46
2018-05-24T08:02:13.484Z,20.54
2018-05-24T08:03:13.305Z,20.66
2018-05-24T08:04:13.333Z,20.75
2018-05-24T08:05:13.476Z,20.86
2018-05-24T08:06:13.484Z,20.94
2018-05-24T08:07:13.487Z,21.05
2018-05-24T08:08:13.518Z,21.25
2018-05-24T08:09:13.420Z,21.38
2018-05-24T08:10:13.545Z,21.28
2018-05-24T08:11:13.457Z,21.17
2018-05-24T08:12:13.490Z,21.13
2018-05-24T08:13:13.545Z,21.28
2018-05-24T08:14:13.548Z,21.46
2018-05-24T08:15:13.526Z,21.49
2018-05-24T08:16:13.527Z,21.60
2018-05-24T08:17:13.524Z,21.54
2018-05-24T08:18:13.416Z,21.45
2018-05-24T08:19:13.469Z,21.60
2018-05-24T08:20:13.528Z,21.54
2018-05-24T08:21:13.453Z,21.69
2018-05-24T08:22:13.533Z,21.96
2018-05-24T08:23:13.528Z,22.25
2018-05-24T08:24:13.525Z,22.25
2018-05-24T08:25:13.566Z,22.27
2018-05-24T08:26:13.493Z,22.45
2018-05-24T08:27:13.487Z,22.48
2018-05-24T08:28:13.549Z,22.60
2018-05-24T08:29:13.453Z,22.79
2018-05-24T08:30:13.502Z,22.90
2018-05-24T08:31:13.536Z,22.86
2018-05-24T08:32:13.456Z,23.01
2018-05-24T08:33:13.548Z,23.22
2018-05-24T08:34:13.459Z,23.45
2018-05-24T08:35:13.647Z,23.50
2018-05-24T08:36:13.569Z,23.58
2018-05-24T08:37:13.512Z,23.67
2018-05-24T08:38:13.460Z,23.91
2018-05-24T08:39:13.573Z,24.14
2018-05-24T08:40:13.541Z,24.23
2018-05-24T08:41:13.443Z,24.34
2018-05-24T08:42:13.546Z,24.38
2018-05-24T08:43:13.559Z,24.22
2018-05-24T08:44:13.562Z,24.20
2018-05-24T08:45:13.483Z,24.09
2018-05-24T08:46:13.470Z,24.15
2018-05-24T08:47:13.658Z,24.11
2018-05-24T08:48:13.582Z,23.85
2018-05-24T08:49:13.589Z,23.71
2018-05-24T08:50:13.523Z,23.64
2018-05-24T08:51:13.622Z,23.60
2018-05-24T08:52:13.562Z,23.57
2018-05-24T08:53:13.551Z,23.41
2018-05-24T08:54:13.512Z,23.04
2018-05-24T08:55:13.552Z,23.05
2018-05-24T08:56:13.546Z,23.05
2018-05-24T08:57:13.510Z,23.17
2018-05-24T08:58:13.571Z,23.17
2018-05-24T08:59:13.592Z,23.13
2018-05-24T09:00:13.520Z,23.09
2018-05-24T09:01:13.547Z,23.11
2018-05-24T09:02:13.456Z,23.05
2018-05-24T09:03:13.468Z,22.86
2018-05-24T09:04:13.593Z,22.79
2018-05-24T09:05:13.531Z,22.84
2018-05-24T09:06:13.603Z,22.87
2018-05-24T09:07:13.519Z,22.83
2018-05-24T09:08:13.522Z,22.63
2018-05-24T09:09:13.589Z,22.59
2018-05-24T09:10:13.589Z,22.59
2018-05-24T09:11:13.518Z,22.52
2018-05-24T09:12:13.539Z,22.56
2018-05-24T09:13:13.582Z,22.48
2018-05-24T09:14:13.570Z,22.50
2018-05-24T09:15:13.564Z,22.48
2018-05-24T09:16:13.492Z,22.41
2018-05-24T09:17:13.561Z,22.13
2018-05-24T09:18:13.564Z,22.06
2018-05-24T09:19:13.498Z,21.97
2018-05-24T09:20:13.629Z,21.89
2018-05-24T09:21:13.498Z,21.68
2018-05-24T09:22:13.575Z,21.64
2018-05-24T09:23:13.596Z,21.49
2018-05-24T09:24:13.567Z,21.46
2018-05-24T09:25:13.500Z,21.35
2018-05-24T09:26:13.502Z,21.28
2018-05-24T09:27:13.503Z,21.29
2018-05-24T09:28:13.574Z,21.29
2018-05-24T09:29:13.608Z,21.24
2018-05-24T09:30:13.506Z,21.14
2018-05-24T09:31:13.582Z,21.08
2018-05-24T09:32:13.509Z,21.09
2018-05-24T09:33:13.507Z,21.05
2018-05-24T09:34:13.672Z,20.99
2018-05-24T09:35:13.541Z,21.06
2018-05-24T09:36:13.621Z,21.02
2018-05-24T09:37:13.604Z,21.04
2018-05-24T09:38:13.610Z,21.08
2018-05-24T09:39:13.533Z,21.04
2018-05-24T09:40:13.613Z,20.95
2018-05-24T09:41:13.579Z,20.87
2018-05-24T09:42:13.648Z,20.86
2018-05-24T09:43:13.604Z,20.83
2018-05-24T09:44:13.541Z,20.90
2018-05-24T09:45:13.507Z,20.91
2018-05-24T09:46:13.481Z,20.93
2018-05-24T09:47:13.616Z,20.93
2018-05-24T09:48:13.603Z,20.88
2018-05-24T09:49:13.584Z,20.86
2018-05-24T09:50:13.609Z,20.83
2018-05-24T09:51:13.579Z,20.77
2018-05-24T09:52:13.621Z,20.72
2018-05-24T09:53:13.558Z,20.70
2018-05-24T09:54:13.550Z,20.77
2018-05-24T09:55:13.555Z,20.84
2018-05-24T09:56:13.591Z,20.83
2018-05-24T09:57:13.591Z,20.77
2018-05-24T09:58:13.520Z,20.70
2018-05-24T09:59:13.593Z,20.68
2018-05-24T10:00:13.524Z,20.57
2018-05-24T10:01:13.594Z,20.61
2018-05-24T10:02:13.525Z,20.65
2018-05-24T10:03:13.611Z,20.60
2018-05-24T10:04:13.522Z,20.57
2018-05-24T10:05:13.623Z,20.57
2018-05-24T10:06:13.563Z,20.58
2018-05-24T10:07:13.558Z,20.61
2018-05-24T10:08:13.566Z,20.60
2018-05-24T10:09:13.636Z,20.58
2018-05-24T10:10:13.636Z,20.56
2018-05-24T10:11:13.635Z,20.56
2018-05-24T10:12:13.634Z,20.60
2018-05-24T10:13:13.619Z,20.65
2018-05-24T10:14:13.564Z,20.66
2018-05-24T10:15:13.632Z,20.65
2018-05-24T10:16:13.667Z,20.66
2018-05-24T10:17:13.605Z,20.60
2018-05-24T10:18:13.575Z,20.50
2018-05-24T10:19:13.643Z,20.45
2018-05-24T10:20:13.580Z,20.52
2018-05-24T10:21:13.633Z,20.57
2018-05-24T10:22:13.579Z,20.58
2018-05-24T10:23:13.647Z,20.65
2018-05-24T10:24:13.578Z,20.65
2018-05-24T10:25:13.529Z,20.60
2018-05-24T10:26:13.642Z,20.60
2018-05-24T10:27:13.579Z,20.46
2018-05-24T10:28:13.516Z,20.41
2018-05-24T10:29:13.588Z,20.27
2018-05-24T10:30:13.630Z,20.14
2018-05-24T10:31:13.649Z,20.12
2018-05-24T10:32:13.657Z,19.96
2018-05-24T10:33:13.651Z,19.85
2018-05-24T10:34:13.638Z,19.79
2018-05-24T10:35:13.539Z,19.79
2018-05-24T10:36:13.534Z,19.62
2018-05-24T10:37:13.543Z,19.55
2018-05-24T10:38:13.635Z,19.53
2018-05-24T10:39:13.651Z,19.43
2018-05-24T10:40:13.556Z,19.38
2018-05-24T10:41:13.656Z,19.29
2018-05-24T10:42:13.520Z,19.27
2018-05-24T10:43:13.594Z,19.25
2018-05-24T10:44:13.582Z,19.16
2018-05-24T10:45:13.546Z,19.06
2018-05-24T10:46:13.576Z,18.98
2018-05-24T10:47:13.525Z,18.98
2018-05-24T10:48:13.617Z,18.94
2018-05-24T10:49:13.553Z,18.88
2018-05-24T10:50:13.494Z,18.87
2018-05-24T10:51:13.558Z,18.66
2018-05-24T10:52:13.522Z,18.62
2018-05-24T10:53:13.557Z,18.65
2018-05-24T10:54:13.549Z,18.62
2018-05-24T10:55:13.621Z,18.62
2018-05-24T10:56:13.625Z,18.64
2018-05-24T10:57:13.564Z,18.62
2018-05-24T10:58:13.686Z,18.62
2018-05-24T10:59:13.668Z,18.55
2018-05-24T11:00:13.553Z,18.40
2018-05-24T11:01:13.557Z,18.40
2018-05-24T11:02:13.652Z,18.40
2018-05-24T11:03:13.628Z,18.38
2018-05-24T11:04:13.538Z,18.36
2018-05-24T11:05:13.633Z,18.38
2018-05-24T11:06:13.626Z,18.36
2018-05-24T11:07:13.596Z,18.35
2018-05-24T11:08:13.574Z,18.32
2018-05-24T11:09:13.569Z,18.34
2018-05-24T11:10:13.640Z,18.41
2018-05-24T11:11:13.599Z,18.48
2018-05-24T11:12:13.642Z,18.54
2018-05-24T11:13:13.568Z,18.54
2018-05-24T11:14:13.565Z,18.48
2018-05-24T11:15:13.595Z,18.48
2018-05-24T11:16:13.656Z,18.55
2018-05-24T11:17:13.588Z,18.50
2018-05-24T11:18:13.499Z,18.51
2018-05-24T11:19:13.544Z,18.52
2018-05-24T11:20:13.499Z,18.68
2018-05-24T11:21:13.502Z,18.62
2018-05-24T11:22:13.501Z,18.62
2018-05-24T11:23:13.502Z,18.61
2018-05-24T11:24:13.595Z,18.57
2018-05-24T11:25:13.638Z,18.69
2018-05-24T11:26:13.667Z,18.69
2018-05-24T11:27:13.634Z,18.52
2018-05-24T11:28:13.675Z,18.51
2018-05-24T11:29:13.610Z,18.41
2018-05-24T11:30:13.611Z,18.51
2018-05-24T11:31:13.575Z,18.52
2018-05-24T11:32:13.674Z,18.57
2018-05-24T11:33:13.651Z,18.66
2018-05-24T11:34:13.614Z,18.76
2018-05-24T11:35:13.691Z,18.84
2018-05-24T11:36:13.574Z,18.90
2018-05-24T11:37:13.734Z,18.87
2018-05-24T11:38:13.655Z,18.95
2018-05-24T11:39:13.675Z,18.94
2018-05-24T11:40:13.621Z,18.86
2018-05-24T11:41:13.629Z,18.90
2018-05-24T11:42:13.756Z,18.80
2018-05-24T11:43:13.702Z,18.80
2018-05-24T11:44:13.677Z,18.76
2018-05-24T11:45:13.586Z,18.66
2018-05-24T11:46:13.694Z,18.73
2018-05-24T11:47:13.622Z,18.73
2018-05-24T11:48:13.562Z,18.73
2018-05-24T11:49:13.583Z,18.68
2018-05-24T11:50:13.677Z,18.65
2018-05-24T11:51:13.601Z,18.59
2018-05-24T11:52:13.703Z,18.55
2018-05-24T11:53:13.640Z,18.46
2018-05-24T11:54:13.681Z,18.32
2018-05-24T11:55:13.702Z,18.23
2018-05-24T11:56:13.634Z,18.12
2018-05-24T11:57:13.667Z,18.02
2018-05-24T11:58:13.685Z,17.96
2018-05-24T11:59:13.671Z,17.76
2018-05-24T12:00:13.627Z,17.71
2018-05-24T12:01:13.632Z,17.62
2018-05-24T12:02:13.652Z,17.60
2018-05-24T12:03:13.694Z,17.58
2018-05-24T12:04:13.702Z,17.51
2018-05-24T12:05:13.709Z,17.53
2018-05-24T12:06:13.712Z,17.50
2018-05-24T12:07:13.714Z,17.54
2018-05-24T12:08:13.636Z,17.58
2018-05-24T12:09:13.676Z,17.66
2018-05-24T12:10:13.643Z,17.72
2018-05-24T12:11:13.644Z,17.69
2018-05-24T12:12:13.677Z,17.73
2018-05-24T12:13:13.711Z,17.85
2018-05-24T12:14:13.757Z,17.96
2018-05-24T12:15:13.741Z,17.96
2018-05-24T12:16:13.646Z,17.80
2018-05-24T12:17:13.705Z,17.87
2018-05-24T12:18:13.639Z,17.94
2018-05-24T12:19:13.657Z,17.91
2018-05-24T12:20:13.642Z,17.98
2018-05-24T12:21:13.706Z,18.05
2018-05-24T12:22:13.608Z,17.96
2018-05-24T12:23:13.715Z,17.94
2018-05-24T12:24:13.607Z,17.95
2018-05-24T12:25:13.701Z,18.05
2018-05-24T12:26:13.686Z,18.14
2018-05-24T12:27:13.607Z,18.05
2018-05-24T12:28:13.657Z,18.07
2018-05-24T12:29:13.684Z,18.13
2018-05-24T12:30:13.673Z,18.20
2018-05-24T12:31:13.614Z,18.28
2018-05-24T12:32:13.717Z,18.40
2018-05-24T12:33:13.725Z,18.41
2018-05-24T12:34:13.714Z,18.44
2018-05-24T12:35:13.834Z,18.48
2018-05-24T12:36:13.669Z,18.35
2018-05-24T12:37:13.619Z,18.27
2018-05-24T12:38:13.717Z,18.31
2018-05-24T12:39:13.617Z,18.34
2018-05-24T12:40:13.734Z,18.34
2018-05-24T12:41:13.599Z,18.36
2018-05-24T12:42:13.616Z,18.44
2018-05-24T12:43:13.701Z,18.32
2018-05-24T12:44:13.602Z,18.31
2018-05-24T12:45:13.700Z,18.32
2018-05-24T12:46:13.599Z,18.25
2018-05-24T12:47:13.646Z,18.23
2018-05-24T12:48:13.645Z,18.20
2018-05-24T12:49:13.558Z,18.18
2018-05-24T12:50:13.602Z,18.14
2018-05-24T12:51:13.649Z,18.16
2018-05-24T12:52:13.652Z,18.14
2018-05-24T12:53:13.610Z,18.17
2018-05-24T12:54:13.561Z,18.18